createdAt,value
2023-04-19T00:00:23.946Z,12.10
2023-04-19T00:05:26.196Z,12.11
2023-04-19T00:10:28.441Z,12.02
2023-04-19T00:15:29.951Z,11.96
2023-04-19T00:20:31.408Z,11.88
2023-04-19T00:25:34.595Z,11.83
2023-04-19T00:30:36.297Z,11.81
2023-04-19T00:35:37.802Z,11.70
2023-04-19T00:40:39.300Z,11.75
2023-04-19T00:45:40.748Z,11.69
2023-04-19T00:50:44.313Z,11.47
2023-04-19T00:55:45.857Z,11.47
2023-04-19T01:00:47.332Z,11.28
2023-04-19T01:05:49.922Z,11.40
2023-04-19T01:10:51.391Z,11.30
2023-04-19T01:15:52.886Z,11.16
2023-04-19T01:20:54.473Z,11.06
2023-04-19T01:25:56.150Z,11.04
2023-04-19T01:30:57.673Z,10.98
2023-04-19T01:35:59.119Z,10.94
2023-04-19T01:41:00.576Z,10.89
2023-04-19T01:46:02.014Z,10.74
2023-04-19T01:51:03.588Z,10.71
2023-04-19T01:56:05.393Z,10.95
2023-04-19T02:01:06.841Z,10.71
2023-04-19T02:06:14.402Z,10.76
2023-04-19T02:11:15.884Z,10.57
2023-04-19T02:16:17.323Z,10.42
2023-04-19T02:21:18.857Z,10.42
2023-04-19T02:26:20.644Z,10.27
2023-04-19T02:31:22.157Z,10.36
2023-04-19T02:36:23.750Z,10.41
2023-04-19T02:41:25.249Z,10.22
2023-04-19T02:46:26.771Z,10.12
2023-04-19T02:51:28.299Z,9.99
2023-04-19T02:56:29.710Z,9.96
2023-04-19T03:01:32.351Z,9.89
2023-04-19T03:06:33.848Z,9.93
2023-04-19T03:11:35.778Z,9.93
2023-04-19T03:16:38.467Z,10.01
2023-04-19T03:21:39.920Z,9.93
2023-04-19T03:26:41.347Z,9.85
2023-04-19T03:31:42.916Z,9.68
2023-04-19T03:36:44.512Z,9.67
2023-04-19T03:41:45.969Z,9.65
2023-04-19T03:46:48.772Z,9.67
2023-04-19T03:51:50.485Z,9.56
2023-04-19T03:56:51.894Z,9.62
2023-04-19T04:01:53.367Z,9.57
2023-04-19T04:06:54.801Z,9.39
2023-04-19T04:11:56.222Z,9.32
2023-04-19T04:16:57.644Z,9.45
2023-04-19T04:21:59.040Z,9.24
2023-04-19T04:27:00.848Z,8.81
2023-04-19T04:32:03.222Z,8.59
2023-04-19T04:37:04.864Z,8.42
2023-04-19T04:42:08.663Z,7.93
2023-04-19T04:47:12.826Z,7.81
2023-04-19T04:52:14.252Z,7.84
2023-04-19T04:57:15.915Z,7.88
2023-04-19T05:02:17.409Z,7.82
2023-04-19T05:07:19.017Z,7.89
2023-04-19T05:12:20.523Z,8.02
2023-04-19T05:17:21.994Z,7.94
2023-04-19T05:22:23.514Z,8.12
2023-04-19T05:27:24.978Z,8.15
2023-04-19T05:32:27.506Z,8.28
2023-04-19T05:37:30.479Z,8.26
2023-04-19T05:42:32.074Z,8.08
2023-04-19T05:47:33.751Z,8.07
2023-04-19T05:52:35.334Z,8.25
2023-04-19T05:57:36.780Z,7.92
2023-04-19T06:02:40.748Z,7.88
2023-04-19T06:07:47.246Z,7.91
2023-04-19T06:12:55.795Z,7.72
2023-04-19T06:17:59.350Z,7.42
2023-04-19T06:23:01.369Z,7.54
2023-04-19T06:28:03.058Z,7.54
2023-04-19T06:33:04.609Z,7.73
2023-04-19T06:38:06.307Z,8.31
2023-04-19T06:43:07.762Z,7.99
2023-04-19T06:48:09.304Z,8.14
2023-04-19T06:53:10.876Z,8.50
2023-04-19T06:58:12.456Z,8.64
2023-04-19T07:03:13.941Z,8.63
2023-04-19T07:08:16.104Z,8.79
2023-04-19T07:13:17.589Z,8.87
2023-04-19T07:18:19.390Z,9.01
2023-04-19T07:23:20.810Z,9.38
2023-04-19T07:28:22.294Z,9.23
2023-04-19T07:33:27.861Z,9.36
2023-04-19T07:38:29.684Z,9.68
2023-04-19T07:43:31.111Z,9.57
2023-04-19T07:48:32.546Z,9.57
2023-04-19T07:53:33.964Z,10.02
2023-04-19T07:58:36.469Z,10.14
2023-04-19T08:03:38.241Z,10.36
2023-04-19T08:08:39.926Z,10.57
2023-04-19T08:13:42.158Z,10.56
2023-04-19T08:18:51.525Z,10.15
2023-04-19T08:23:55.655Z,10.30
2023-04-19T08:28:57.089Z,10.33
2023-04-19T08:34:00.202Z,10.54
2023-04-19T08:39:06.729Z,10.07
2023-04-19T08:44:12.366Z,9.75
2023-04-19T08:49:15.241Z,9.62
2023-04-19T08:54:18.279Z,9.39
2023-04-19T08:59:20.124Z,9.27
2023-04-19T09:04:36.563Z,9.16
2023-04-19T09:09:55.652Z,9.11
2023-04-19T09:15:04.366Z,9.76
2023-04-19T09:20:07.188Z,10.29
2023-04-19T09:30:24.201Z,10.03
2023-04-19T09:35:48.211Z,9.54
2023-04-19T09:40:50.386Z,9.42
2023-04-19T09:45:52.529Z,9.42
2023-04-19T09:51:00.799Z,9.12
2023-04-19T09:56:06.287Z,9.30
2023-04-19T10:01:15.559Z,9.28
2023-04-19T10:11:27.387Z,8.96
2023-04-19T10:16:30.654Z,8.84
2023-04-19T10:21:33.297Z,8.86
2023-04-19T10:27:03.140Z,9.14
2023-04-19T10:32:06.192Z,9.06
2023-04-19T10:37:11.248Z,9.08
2023-04-19T10:42:13.131Z,9.30
2023-04-19T10:47:44.621Z,9.65
2023-04-19T10:52:46.212Z,9.38
2023-04-19T10:58:06.569Z,9.46
2023-04-19T11:03:45.282Z,9.69
2023-04-19T11:08:47.268Z,9.41
2023-04-19T11:13:48.800Z,9.48
2023-04-19T11:18:50.237Z,8.95
2023-04-19T11:24:10.491Z,9.19
2023-04-19T11:29:12.861Z,9.05
2023-04-19T11:34:14.717Z,9.05
2023-04-19T11:39:16.504Z,8.88
2023-04-19T11:44:22.320Z,8.93
2023-04-19T11:49:28.908Z,8.69
2023-04-19T11:54:30.597Z,8.80
2023-04-19T11:59:34.855Z,8.71
2023-04-19T12:04:37.722Z,8.75
2023-04-19T12:09:39.428Z,8.67
2023-04-19T12:14:52.250Z,8.64
2023-04-19T12:19:53.703Z,8.48
2023-04-19T12:24:55.989Z,8.79
2023-04-19T12:29:57.422Z,8.77
2023-04-19T12:34:58.850Z,8.69
2023-04-19T12:40:00.372Z,8.44
2023-04-19T12:45:01.805Z,8.46
2023-04-19T12:50:03.814Z,8.33
2023-04-19T12:55:05.921Z,8.35
2023-04-19T13:00:10.603Z,8.34
2023-04-19T13:05:12.979Z,8.49
2023-04-19T13:10:14.450Z,8.53
2023-04-19T13:15:15.908Z,8.23
2023-04-19T13:20:20.221Z,8.04
2023-04-19T13:25:22.223Z,8.24
2023-04-19T13:30:23.686Z,8.24
2023-04-19T13:35:25.196Z,8.38
2023-04-19T13:40:26.893Z,8.44
2023-04-19T13:45:28.303Z,8.42
2023-04-19T13:50:30.082Z,8.39
2023-04-19T13:55:31.612Z,8.62
2023-04-19T14:00:33.925Z,8.53
2023-04-19T14:05:35.913Z,8.58
2023-04-19T14:10:38.039Z,8.53
2023-04-19T14:15:40.911Z,8.39
2023-04-19T14:20:42.361Z,8.30
2023-04-19T14:25:43.778Z,8.84
2023-04-19T14:30:45.225Z,8.64
2023-04-19T14:35:46.733Z,8.78
2023-04-19T14:40:48.398Z,8.69
2023-04-19T14:45:50.027Z,8.84
2023-04-19T14:50:51.835Z,8.84
2023-04-19T14:55:53.259Z,8.83
2023-04-19T15:00:54.875Z,8.98
2023-04-19T15:05:56.336Z,8.89
2023-04-19T15:10:57.751Z,9.04
2023-04-19T15:16:01.842Z,9.28
2023-04-19T15:21:05.153Z,9.34
2023-04-19T15:26:06.712Z,8.91
2023-04-19T15:31:08.900Z,8.90
2023-04-19T15:36:10.370Z,9.28
2023-04-19T15:41:11.828Z,9.31
2023-04-19T15:46:14.073Z,9.40
2023-04-19T15:51:16.104Z,9.56
2023-04-19T15:56:17.562Z,9.56
2023-04-19T16:01:19.421Z,9.47
2023-04-19T16:06:21.797Z,9.58
2023-04-19T16:11:23.371Z,9.73
2023-04-19T16:16:27.013Z,9.40
2023-04-19T16:21:28.783Z,9.39
2023-04-19T16:26:30.292Z,9.23
2023-04-19T16:31:31.996Z,9.22
2023-04-19T16:36:33.451Z,9.32
2023-04-19T16:41:34.875Z,9.23
2023-04-19T16:46:36.522Z,9.08
2023-04-19T16:51:38.273Z,9.05
2023-04-19T16:56:39.756Z,8.97
2023-04-19T17:01:41.280Z,8.81
2023-04-19T17:06:42.722Z,8.66
2023-04-19T17:11:44.267Z,8.46
2023-04-19T17:16:46.029Z,8.66
2023-04-19T17:21:47.461Z,8.60
2023-04-19T17:26:49.820Z,8.77
2023-04-19T17:31:51.362Z,8.97
2023-04-19T17:36:52.847Z,8.89
2023-04-19T17:41:54.919Z,8.80
2023-04-19T17:46:57.208Z,8.85
2023-04-19T17:51:58.835Z,8.90
2023-04-19T17:57:02.516Z,8.89
2023-04-19T18:02:04.169Z,8.97
2023-04-19T18:07:06.087Z,9.03
2023-04-19T18:12:07.688Z,8.96
2023-04-19T18:17:09.152Z,9.03
2023-04-19T18:22:10.579Z,8.97
2023-04-19T18:27:12.696Z,8.86
2023-04-19T18:32:14.295Z,8.86
2023-04-19T18:37:16.934Z,8.88
2023-04-19T18:42:18.373Z,8.91
2023-04-19T18:47:20.170Z,8.94
2023-04-19T18:52:21.622Z,8.93
2023-04-19T18:57:24.356Z,8.89
2023-04-19T19:02:29.029Z,8.87
2023-04-19T19:12:36.062Z,8.92
2023-04-19T19:17:38.125Z,8.89
2023-04-19T19:22:40.275Z,8.72
2023-04-19T19:27:50.135Z,8.82
2023-04-19T19:32:59.941Z,8.80
2023-04-19T19:38:01.488Z,8.67
2023-04-19T19:43:02.977Z,8.73
2023-04-19T19:48:05.069Z,8.72
2023-04-19T19:53:06.547Z,8.66
2023-04-19T20:03:12.743Z,8.74
2023-04-19T20:08:14.684Z,8.71
2023-04-19T20:13:17.040Z,8.76
2023-04-19T20:18:18.562Z,8.73
2023-04-19T20:23:21.594Z,8.76
2023-04-19T20:28:23.119Z,8.72
2023-04-19T20:33:24.559Z,8.73
2023-04-19T20:38:29.101Z,8.81
2023-04-19T20:43:30.577Z,8.81
2023-04-19T20:48:32.237Z,8.74
2023-04-19T20:53:34.146Z,8.67
2023-04-19T20:58:37.837Z,8.65
2023-04-19T21:03:39.469Z,8.65
2023-04-19T21:08:41.044Z,8.65
2023-04-19T21:13:42.608Z,8.64
2023-04-19T21:18:44.044Z,8.62
2023-04-19T21:23:45.475Z,8.55
2023-04-19T21:28:47.023Z,8.51
2023-04-19T21:33:48.472Z,8.56
2023-04-19T21:38:49.941Z,8.53
2023-04-19T21:43:51.403Z,8.56
2023-04-19T21:48:55.554Z,8.59
2023-04-19T21:53:57.369Z,8.61
2023-04-19T21:58:58.834Z,8.57
2023-04-19T22:04:01.863Z,8.58
2023-04-19T22:09:05.636Z,8.61
2023-04-19T22:14:07.781Z,8.58
2023-04-19T22:19:10.065Z,8.58
2023-04-19T22:24:11.514Z,8.61
2023-04-19T22:29:12.955Z,8.65
2023-04-19T22:34:14.406Z,8.65
2023-04-19T22:39:16.096Z,8.60
2023-04-19T22:44:17.794Z,8.60
2023-04-19T22:49:22.085Z,8.43
2023-04-19T22:54:23.514Z,8.45
2023-04-19T22:59:25.076Z,8.44
2023-04-19T23:04:26.951Z,8.49
2023-04-19T23:09:29.729Z,8.51
2023-04-19T23:14:31.396Z,8.37
2023-04-19T23:19:32.832Z,8.32
2023-04-19T23:24:36.167Z,8.30
2023-04-19T23:29:37.684Z,8.28
2023-04-19T23:34:39.116Z,8.38
2023-04-19T23:39:40.676Z,8.29
2023-04-19T23:44:43.911Z,8.17
2023-04-19T23:49:45.664Z,7.95
2023-04-19T23:54:47.083Z,8.00
2023-04-19T23:59:48.538Z,8.00
